Time;durP1;ratioP1;P1;durP2;ratioP2;P2;SDS_P1;SDS_P2;PMS_P1;PMS_P2;Temp;Humidity;BMP_temperature;BMP_pressure;BME280_temperature;BME280_humidity;BME280_pressure;Samples;Min_cycle;Max_cycle;Signal;HPM_P1;HPM_P2
2022/10/24 00:02:16;;;;;;;;;;;16.50;99.90;;;;;;6184826;23;19922;-82
2022/10/24 00:04:43;;;;;;;;;;;16.50;99.90;;;;;;6183894;23;19947;-81
2022/10/24 00:07:10;;;;;;;;;;;16.50;99.90;;;;;;6183679;23;19920;-81
2022/10/24 00:09:37;;;;;;;;;;;16.50;99.90;;;;;;6202688;23;19986;-82
2022/10/24 00:12:04;;;;;;;;;;;16.50;99.90;;;;;;6213407;23;19922;-81
2022/10/24 00:14:31;;;;;;;;;;;16.50;99.90;;;;;;6192665;23;19987;-81
2022/10/24 00:16:58;;;;;;;;;;;16.50;99.90;;;;;;6210553;23;19922;-81
2022/10/24 00:19:24;;;;;;;;;;;16.40;99.90;;;;;;6215712;23;19946;-81
2022/10/24 00:21:51;;;;;;;;;;;16.40;99.90;;;;;;6213350;23;19915;-81
2022/10/24 00:24:18;;;;;;;;;;;16.40;99.90;;;;;;6214464;23;19987;-81
2022/10/24 00:26:44;;;;;;;;;;;16.30;99.90;;;;;;6214293;23;19915;-82
2022/10/24 00:29:11;;;;;;;;;;;16.30;99.90;;;;;;6214639;22;19955;-82
2022/10/24 00:31:38;;;;;;;;;;;16.30;99.90;;;;;;6214147;23;20301;-82
2022/10/24 00:34:04;;;;;;;;;;;16.30;99.90;;;;;;6213452;23;19959;-81
2022/10/24 00:36:31;;;;;;;;;;;16.40;99.90;;;;;;6192670;23;19917;-81
2022/10/24 00:38:58;;;;;;;;;;;16.40;99.90;;;;;;6210407;23;19916;-81
2022/10/24 00:41:27;;;;;;;;;;;16.40;99.90;;;;;;6214092;23;19923;-82
2022/10/24 00:44:12;;;;;;;;;;;16.40;99.90;;;;;;6188323;23;19915;-81
2022/10/24 00:46:40;;;;;;;;;;;16.40;99.90;;;;;;6190886;23;19920;-82
2022/10/24 00:49:11;;;;;;;;;;;16.40;99.90;;;;;;6213521;23;20307;-81
2022/10/24 00:51:37;;;;;;;;;;;16.40;99.90;;;;;;6191026;23;19958;-81
2022/10/24 00:54:07;;;;;;;;;;;16.40;99.90;;;;;;6211195;23;19916;-82
2022/10/24 00:56:36;;;;;;;;;;;16.40;99.90;;;;;;6191845;23;19983;-82
2022/10/24 00:59:04;;;;;;;;;;;16.30;99.90;;;;;;6211115;23;19916;-81
2022/10/24 01:01:32;;;;;;;;;;;16.40;99.90;;;;;;6191984;23;19920;-80
2022/10/24 01:04:00;;;;;;;;;;;16.40;99.90;;;;;;6209881;23;20229;-79
2022/10/24 01:06:35;;;;;;;;;;;16.40;99.90;;;;;;6214869;23;19922;-79
2022/10/24 01:09:05;;;;;;;;;;;16.40;99.90;;;;;;6190634;23;19998;-80
2022/10/24 01:11:34;;;;;;;;;;;16.30;99.90;;;;;;6199892;23;19923;-80
2022/10/24 01:14:07;;;;;;;;;;;16.20;99.90;;;;;;6181342;23;19916;-79
2022/10/24 01:16:42;;;;;;;;;;;16.20;99.90;;;;;;6185079;23;19916;-79
2022/10/24 01:19:28;;;;;;;;;;;16.20;99.90;;;;;;6194736;23;20297;-79
2022/10/24 01:21:57;;;;;;;;;;;16.30;99.90;;;;;;6182470;23;19995;-79
2022/10/24 01:24:27;;;;;;;;;;;16.30;99.90;;;;;;6178312;23;20262;-79
2022/10/24 01:27:24;;;;;;;;;;;16.30;99.90;;;;;;6190906;23;19951;-79
2022/10/24 01:30:10;;;;;;;;;;;16.30;99.90;;;;;;6177184;23;20261;-79
2022/10/24 01:32:43;;;;;;;;;;;16.30;99.90;;;;;;6184744;23;19916;-79
2022/10/24 01:35:12;;;;;;;;;;;16.30;99.90;;;;;;6181079;23;19923;-79
2022/10/24 01:37:55;;;;;;;;;;;16.30;99.90;;;;;;6160944;23;20357;-80
2022/10/24 01:40:31;;;;;;;;;;;16.30;99.90;;;;;;6153319;23;19951;-80
2022/10/24 01:43:00;;;;;;;;;;;16.30;99.90;;;;;;6152697;23;20404;-80
2022/10/24 01:45:30;;;;;;;;;;;16.30;99.90;;;;;;6153478;23;20334;-80
2022/10/24 01:47:58;;;;;;;;;;;16.30;99.90;;;;;;6153502;23;20312;-80
2022/10/24 01:50:26;;;;;;;;;;;16.30;99.90;;;;;;6152840;23;19917;-80
2022/10/24 01:52:54;;;;;;;;;;;16.30;99.90;;;;;;6154722;23;19927;-79
2022/10/24 01:55:21;;;;;;;;;;;16.20;99.90;;;;;;6152635;23;19916;-80
2022/10/24 01:57:47;;;;;;;;;;;16.30;99.90;;;;;;6153562;23;19923;-80
2022/10/24 02:00:16;;;;;;;;;;;16.30;99.90;;;;;;6152760;23;19940;-79
2022/10/24 02:05:17;;;;;;;;;;;16.30;99.90;;;;;;6150733;23;19920;-73
2022/10/24 02:07:47;;;;;;;;;;;16.30;99.90;;;;;;6153677;23;20233;-74
2022/10/24 22:05:09;;;;;;;;;;;18.40;61.50;;;;;;6116320;23;19931;-80
